Cesar Chavez — NCCZ — position and weather

sailwx.info

Track history (hours):
 
Tides and Currents Weather Stations Pressure Air Temp Water Temp Dewpoint Dewpoint Depression Visibility Wind Speed Wind Dir Waves Ship Positions

Cesar Chavez

Last reported at 2017-Nov-06 20:55 UTC. Time now 2017-Nov-18 06:22 UTC.
Position N 48°07' W 122°44'.
Warning: this ship's position is 11 days out of date.

Length 211 m.

Type: Cargo ship. MMSI: 369989000.

Date/timePositionNaut miles runAvg speedWind from/ knotsBaromVisibWave heightAir tempDewpointWater temp
2017-Nov-06 20:55N 48°07' W 122°44'  
2017-Oct-29 19:16N 44°58' W 125°25'415.9
2017-Oct-29 19:00N 45°03' W 125°25'815.9
2017-Oct-29 18:30N 45°11' W 125°26'816.1
2017-Oct-29 18:01N 45°19' W 125°27'816.2
2017-Oct-29 17:31N 45°27' W 125°27'816.0
2017-Oct-29 17:00N 45°35' W 125°28'815.9
2017-Oct-29 16:29N 45°43' W 125°29'816.3
2017-Oct-29 16:00N 45°51' W 125°29'715.0
2017-Oct-29 15:30N 45°58' W 125°30'814.9
2017-Oct-29 15:00N 46°06' W 125°31'714.7
2017-Oct-29 14:30N 46°13' W 125°31'714.9
2017-Oct-29 14:01N 46°20' W 125°32'714.9
2017-Oct-29 13:30N 46°28' W 125°32'714.7
2017-Oct-29 13:00N 46°35' W 125°33'814.7
2017-Oct-29 12:29N 46°43' W 125°34'714.8
2017-Oct-29 12:00N 46°50' W 125°34'815.0
2017-Oct-29 11:28N 46°58' W 125°35'6714.3
2017-Oct-29 06:47N 48°04' W 125°19'813.9
2017-Oct-29 06:11N 48°12' W 125°14'314.0
2017-Oct-29 06:00N 48°14' W 125°12'713.9
2017-Oct-29 05:29N 48°21' W 125°09'714.3
2017-Oct-29 05:00N 48°27' W 125°05'712.9
2017-Oct-29 04:29N 48°31' W 124°56'714.3
2017-Oct-29 04:01N 48°31' W 124°46'  
Track history (hours):
 
Tides and Currents Weather Stations Pressure Air Temp Water Temp Dewpoint Dewpoint Depression Visibility Wind Speed Wind Dir Waves Ship Positions

Cesar Chavez

Last reported at 2017-Nov-06 20:55 UTC. Time now 2017-Nov-18 06:22 UTC.
Position N 48°07' W 122°44'.
Warning: this ship's position is 11 days out of date.

Length 211 m.

Type: Cargo ship. MMSI: 369989000.

Date/timePositionNaut miles runAvg speedWind from/ knotsBaromVisibWave heightAir tempDewpointWater temp
2017-Nov-06 20:55N 48°07' W 122°44'  
2017-Oct-29 19:16N 44°58' W 125°25'415.9
2017-Oct-29 19:00N 45°03' W 125°25'815.9
2017-Oct-29 18:30N 45°11' W 125°26'816.1
2017-Oct-29 18:01N 45°19' W 125°27'816.2
2017-Oct-29 17:31N 45°27' W 125°27'816.0
2017-Oct-29 17:00N 45°35' W 125°28'815.9
2017-Oct-29 16:29N 45°43' W 125°29'816.3
2017-Oct-29 16:00N 45°51' W 125°29'715.0
2017-Oct-29 15:30N 45°58' W 125°30'814.9
2017-Oct-29 15:00N 46°06' W 125°31'714.7
2017-Oct-29 14:30N 46°13' W 125°31'714.9
2017-Oct-29 14:01N 46°20' W 125°32'714.9
2017-Oct-29 13:30N 46°28' W 125°32'714.7
2017-Oct-29 13:00N 46°35' W 125°33'814.7
2017-Oct-29 12:29N 46°43' W 125°34'714.8
2017-Oct-29 12:00N 46°50' W 125°34'815.0
2017-Oct-29 11:28N 46°58' W 125°35'6714.3
2017-Oct-29 06:47N 48°04' W 125°19'813.9
2017-Oct-29 06:11N 48°12' W 125°14'314.0
2017-Oct-29 06:00N 48°14' W 125°12'713.9
2017-Oct-29 05:29N 48°21' W 125°09'714.3
2017-Oct-29 05:00N 48°27' W 125°05'712.9
2017-Oct-29 04:29N 48°31' W 124°56'714.3
2017-Oct-29 04:01N 48°31' W 124°46'  

Dump ship's entire track history